createdAt,value
2019-03-27T00:41:55.693Z,12.10
2019-03-27T00:57:20.283Z,11.80
2019-03-27T01:04:36.864Z,11.60
2019-03-27T01:35:44.705Z,11.10
2019-03-27T01:38:44.072Z,11.10
2019-03-27T01:41:41.578Z,11.00
2019-03-27T01:44:42.709Z,11.00
2019-03-27T01:47:31.019Z,10.90
2019-03-27T01:50:18.101Z,10.90
2019-03-27T01:53:08.743Z,10.90
2019-03-27T01:55:57.104Z,10.80
2019-03-27T01:58:54.402Z,10.80
2019-03-27T02:01:49.472Z,10.80
2019-03-27T02:04:36.396Z,10.80
2019-03-27T02:07:26.000Z,10.70
2019-03-27T02:10:23.329Z,10.70
2019-03-27T02:13:43.128Z,10.70
2019-03-27T02:16:39.148Z,10.60
2019-03-27T02:19:28.583Z,10.60
2019-03-27T02:22:29.042Z,10.60
2019-03-27T02:25:32.579Z,10.70
2019-03-27T02:28:15.943Z,10.70
2019-03-27T02:30:58.703Z,10.70
2019-03-27T02:33:42.914Z,10.70
2019-03-27T02:36:28.177Z,10.70
2019-03-27T02:39:12.205Z,10.80
2019-03-27T02:41:57.814Z,10.80
2019-03-27T02:44:47.223Z,10.80
2019-03-27T02:47:33.797Z,10.80
2019-03-27T02:50:19.621Z,10.80
2019-03-27T02:52:59.651Z,10.80
2019-03-27T02:55:39.298Z,10.80
2019-03-27T02:58:18.435Z,10.80
2019-03-27T03:00:56.020Z,10.80
2019-03-27T03:03:36.674Z,10.80
2019-03-27T03:06:15.641Z,10.80
2019-03-27T03:08:58.295Z,10.80
2019-03-27T03:11:37.587Z,10.80
2019-03-27T03:14:19.827Z,10.80
2019-03-27T03:17:05.009Z,10.80
2019-03-27T03:19:55.237Z,10.80
2019-03-27T03:22:46.065Z,10.80
2019-03-27T03:25:34.490Z,10.90
2019-03-27T03:28:36.445Z,10.90
2019-03-27T03:31:40.649Z,10.90
2019-03-27T03:34:45.505Z,10.90
2019-03-27T03:37:26.986Z,10.90
2019-03-27T03:40:07.102Z,10.90
2019-03-27T03:43:03.769Z,10.90
2019-03-27T03:45:52.354Z,10.90
2019-03-27T03:48:36.791Z,10.90
2019-03-27T03:51:16.120Z,10.90
2019-03-27T03:53:54.871Z,11.00
2019-03-27T03:56:35.314Z,11.00
2019-03-27T03:59:16.750Z,11.00
2019-03-27T04:02:06.180Z,11.00
2019-03-27T04:04:49.672Z,11.00
2019-03-27T04:07:39.802Z,11.00
2019-03-27T04:10:24.799Z,11.00
2019-03-27T04:13:11.743Z,11.00
2019-03-27T04:15:52.250Z,11.00
2019-03-27T04:18:36.926Z,11.10
2019-03-27T04:21:21.977Z,11.10
2019-03-27T04:24:06.097Z,11.10
2019-03-27T04:26:46.903Z,11.10
2019-03-27T04:29:29.439Z,11.10
2019-03-27T04:32:13.753Z,11.10
2019-03-27T04:34:59.285Z,11.10
2019-03-27T04:37:42.211Z,11.10
2019-03-27T04:40:22.852Z,11.10
2019-03-27T04:43:09.575Z,11.10
2019-03-27T04:45:55.420Z,11.10
2019-03-27T04:48:38.018Z,11.10
2019-03-27T04:51:25.178Z,11.10
2019-03-27T04:54:05.775Z,11.10
2019-03-27T04:56:50.184Z,11.10
2019-03-27T04:59:32.190Z,11.10
2019-03-27T05:02:16.776Z,11.00
2019-03-27T05:05:04.648Z,11.00
2019-03-27T05:07:49.053Z,11.00
2019-03-27T05:10:30.269Z,10.90
2019-03-27T05:13:16.490Z,10.90
2019-03-27T05:15:58.868Z,10.90
2019-03-27T05:18:42.713Z,10.80
2019-03-27T05:21:29.589Z,10.80
2019-03-27T05:24:08.387Z,10.80
2019-03-27T05:26:50.388Z,10.80
2019-03-27T05:29:35.235Z,10.80
2019-03-27T05:32:28.310Z,10.80
2019-03-27T05:35:17.528Z,10.80
2019-03-27T05:38:08.158Z,10.80
2019-03-27T05:40:48.522Z,10.80
2019-03-27T05:43:31.935Z,10.90
2019-03-27T05:46:15.510Z,10.90
2019-03-27T05:49:05.769Z,10.90
2019-03-27T05:52:07.759Z,11.00
2019-03-27T05:55:02.339Z,11.00
2019-03-27T05:58:02.845Z,11.00
2019-03-27T06:01:08.749Z,11.10
2019-03-27T06:04:34.950Z,11.10
2019-03-27T06:08:21.012Z,11.10
2019-03-27T06:15:49.887Z,11.20
2019-03-27T06:18:24.666Z,11.20
2019-03-27T06:39:33.984Z,11.40
2019-03-27T06:42:26.508Z,11.40
2019-03-27T06:45:33.878Z,11.50
2019-03-27T06:48:11.784Z,11.50
2019-03-27T06:50:51.609Z,11.50
2019-03-27T06:53:28.785Z,11.50
2019-03-27T06:56:30.929Z,11.50
2019-03-27T06:59:23.528Z,11.50
2019-03-27T07:02:09.679Z,11.60
2019-03-27T07:05:13.841Z,11.60
2019-03-27T07:57:53.562Z,12.30
2019-03-27T08:01:51.068Z,12.30
2019-03-27T08:04:31.320Z,12.30
2019-03-27T08:39:31.167Z,12.90
2019-03-27T08:42:51.105Z,13.20
2019-03-27T08:49:56.976Z,13.30
2019-03-27T08:53:02.521Z,13.40
2019-03-27T08:55:46.505Z,13.50
2019-03-27T08:58:30.255Z,13.60
2019-03-27T09:01:11.356Z,13.70
2019-03-27T09:04:34.206Z,13.70
2019-03-27T09:07:16.251Z,13.80
2019-03-27T09:09:55.150Z,13.80
2019-03-27T09:12:43.846Z,13.70
2019-03-27T09:15:46.456Z,13.70
2019-03-27T09:18:30.689Z,13.70
2019-03-27T09:21:11.131Z,13.70
2019-03-27T09:23:51.525Z,13.70
2019-03-27T09:26:31.350Z,13.70
2019-03-27T09:29:23.755Z,13.70
2019-03-27T09:32:07.148Z,13.70
2019-03-27T09:34:46.821Z,13.70
2019-03-27T09:37:28.901Z,13.80
2019-03-27T09:40:06.195Z,13.90
2019-03-27T09:42:42.661Z,13.90
2019-03-27T09:45:24.621Z,14.00
2019-03-27T09:48:04.333Z,14.10
2019-03-27T09:50:43.029Z,14.10
2019-03-27T09:53:45.820Z,14.20
2019-03-27T09:56:26.723Z,14.20
2019-03-27T09:59:06.053Z,14.30
2019-03-27T10:01:47.888Z,14.30
2019-03-27T10:04:25.578Z,14.30
2019-03-27T10:07:03.351Z,14.30
2019-03-27T10:09:57.390Z,14.30
2019-03-27T10:12:46.410Z,14.20
2019-03-27T10:15:27.057Z,14.30
2019-03-27T10:18:16.120Z,14.30
2019-03-27T10:20:54.202Z,14.40
2019-03-27T10:23:38.892Z,14.50
2019-03-27T10:26:23.870Z,14.50
2019-03-27T10:29:01.662Z,14.50
2019-03-27T10:31:50.152Z,14.60
2019-03-27T10:34:30.820Z,14.60
2019-03-27T10:37:16.723Z,14.70
2019-03-27T10:40:03.163Z,14.70
2019-03-27T10:42:43.566Z,14.80
2019-03-27T10:45:23.634Z,14.90
2019-03-27T10:48:08.896Z,14.90
2019-03-27T10:50:47.772Z,15.00
2019-03-27T10:53:31.486Z,15.10
2019-03-27T10:56:08.740Z,15.20
2019-03-27T10:58:46.208Z,15.20
2019-03-27T11:01:32.760Z,15.30
2019-03-27T11:04:14.217Z,15.30
2019-03-27T11:06:59.678Z,15.40
2019-03-27T11:09:46.429Z,15.40
2019-03-27T11:12:33.238Z,15.50
2019-03-27T11:15:10.581Z,15.50
2019-03-27T11:17:52.800Z,15.50
2019-03-27T11:20:31.510Z,15.50
2019-03-27T11:23:11.958Z,15.50
2019-03-27T11:25:51.011Z,15.50
2019-03-27T11:28:32.213Z,15.50
2019-03-27T11:31:25.509Z,15.50
2019-03-27T11:34:08.008Z,15.50
2019-03-27T11:36:50.973Z,15.50
2019-03-27T11:39:34.640Z,15.50
2019-03-27T11:42:10.488Z,15.50
2019-03-27T11:44:52.756Z,15.50
2019-03-27T11:47:32.650Z,15.50
2019-03-27T11:50:12.954Z,15.50
2019-03-27T11:52:57.754Z,15.50
2019-03-27T11:55:40.750Z,15.50
2019-03-27T11:58:24.929Z,15.50
2019-03-27T12:01:08.596Z,15.50
2019-03-27T12:03:46.945Z,15.60
2019-03-27T12:06:24.119Z,15.60
2019-03-27T12:09:05.735Z,15.70
2019-03-27T12:11:47.874Z,15.70
2019-03-27T12:14:34.094Z,15.70
2019-03-27T12:17:16.476Z,15.70
2019-03-27T12:19:57.511Z,15.80
2019-03-27T12:22:35.839Z,15.80
2019-03-27T12:25:14.612Z,15.90
2019-03-27T12:28:03.784Z,15.90
2019-03-27T12:30:45.149Z,15.90
2019-03-27T12:33:28.432Z,16.00
2019-03-27T12:36:11.131Z,16.00
2019-03-27T12:38:50.373Z,16.00
2019-03-27T12:41:35.400Z,16.10
2019-03-27T12:44:21.630Z,16.10
2019-03-27T12:47:00.165Z,16.20
2019-03-27T12:49:41.148Z,16.30
2019-03-27T12:52:29.856Z,16.40
2019-03-27T12:55:16.954Z,16.50
2019-03-27T12:58:02.372Z,16.60
2019-03-27T13:00:41.216Z,16.80
2019-03-27T13:03:30.405Z,16.90
2019-03-27T13:06:09.346Z,17.00
2019-03-27T13:08:55.198Z,17.10
2019-03-27T13:11:38.886Z,17.20
2019-03-27T13:14:25.979Z,17.30
2019-03-27T13:17:18.111Z,17.40
2019-03-27T13:19:57.052Z,17.40
2019-03-27T13:22:38.022Z,17.40
2019-03-27T13:25:50.069Z,17.50
2019-03-27T13:28:51.907Z,17.50
2019-03-27T13:31:45.990Z,17.50
2019-03-27T13:34:33.085Z,17.50
2019-03-27T13:37:21.842Z,17.40
2019-03-27T13:40:22.738Z,17.40
2019-03-27T13:43:23.805Z,17.30
2019-03-27T13:46:09.813Z,17.30
2019-03-27T13:48:58.447Z,17.20
2019-03-27T13:51:53.080Z,17.20
2019-03-27T13:54:35.434Z,17.10
2019-03-27T13:57:14.017Z,17.10
2019-03-27T13:59:55.333Z,17.00
2019-03-27T14:02:44.534Z,17.00
2019-03-27T14:05:38.203Z,17.00
2019-03-27T14:08:21.967Z,16.90
2019-03-27T14:11:14.545Z,16.90
2019-03-27T14:14:10.524Z,16.80
2019-03-27T14:16:43.012Z,16.80
2019-03-27T14:23:25.169Z,16.70
2019-03-27T14:25:56.295Z,16.60
2019-03-27T14:46:48.086Z,16.30
2019-03-27T15:11:20.214Z,16.20
2019-03-27T15:35:02.345Z,16.30
2019-03-27T16:10:37.588Z,16.60
2019-03-27T16:28:54.242Z,16.20
2019-03-27T16:32:48.861Z,16.10
2019-03-27T16:40:37.065Z,16.00
2019-03-27T16:49:48.604Z,15.90
2019-03-27T17:06:44.888Z,15.80
2019-03-27T17:10:35.088Z,15.80
2019-03-27T17:29:07.219Z,15.50
2019-03-27T17:37:27.495Z,15.40
2019-03-27T17:40:02.539Z,15.40
2019-03-27T17:47:26.246Z,15.30
2019-03-27T17:50:44.890Z,15.20
2019-03-27T18:05:47.676Z,15.10
2019-03-27T18:21:27.986Z,14.90
2019-03-27T18:24:41.965Z,14.90
2019-03-27T18:28:43.497Z,14.80
2019-03-27T18:31:44.933Z,14.80
2019-03-27T18:37:59.933Z,14.70
2019-03-27T19:39:52.582Z,14.60
2019-03-27T19:44:06.137Z,14.50
2019-03-27T23:52:45.659Z,13.20
2019-03-27T23:55:37.621Z,13.30
2019-03-27T23:58:55.407Z,13.40
